Time;durP1;ratioP1;P1;durP2;ratioP2;P2;SDS_P1;SDS_P2;PMS_P1;PMS_P2;Temp;Humidity;BMP_temperature;BMP_pressure;BME280_temperature;BME280_humidity;BME280_pressure;Samples;Min_cycle;Max_cycle;Signal;HPM_P1;HPM_P2
2022/03/09 00:00:24;;;;;;;40.72;22.60;;;7.10;79.40;;;;;;4805028;29;20050;-70
2022/03/09 00:02:52;;;;;;;37.58;22.38;;;7.10;79.40;;;;;;4805669;29;20505;-71
2022/03/09 00:05:19;;;;;;;40.25;22.35;;;7.20;79.40;;;;;;4789465;29;20054;-70
2022/03/09 00:07:47;;;;;;;38.17;22.75;;;7.30;79.50;;;;;;4803901;29;20055;-70
2022/03/09 00:10:15;;;;;;;41.33;22.50;;;7.30;79.60;;;;;;4804709;29;20510;-70
2022/03/09 00:12:44;;;;;;;40.58;22.42;;;7.30;79.40;;;;;;4789432;29;20061;-70
2022/03/09 00:15:11;;;;;;;41.40;23.20;;;7.30;79.50;;;;;;4805000;29;20047;-70
2022/03/09 00:17:39;;;;;;;44.63;23.05;;;7.30;79.60;;;;;;4804353;29;20541;-71
2022/03/09 00:20:09;;;;;;;40.70;23.17;;;7.20;79.60;;;;;;4805328;29;20067;-71
2022/03/09 00:22:36;;;;;;;42.28;23.40;;;7.20;79.90;;;;;;4805403;29;20051;-71
2022/03/09 00:25:04;;;;;;;47.17;24.08;;;7.10;80.00;;;;;;4804973;29;20043;-71
2022/03/09 00:27:32;;;;;;;42.00;23.48;;;7.00;80.40;;;;;;4805400;29;20073;-71
2022/03/09 00:30:01;;;;;;;41.22;23.77;;;7.00;80.80;;;;;;4787646;29;20067;-70
2022/03/09 00:32:31;;;;;;;47.47;24.27;;;7.00;81.00;;;;;;4805575;29;20046;-69
2022/03/09 00:34:58;;;;;;;47.97;24.38;;;6.90;81.00;;;;;;4804703;29;20054;-70
2022/03/09 00:37:26;;;;;;;44.10;24.63;;;6.80;81.30;;;;;;4805248;29;20050;-70
2022/03/09 00:39:54;;;;;;;47.45;25.67;;;6.80;81.40;;;;;;4804798;29;20058;-69
2022/03/09 00:42:21;;;;;;;45.55;23.92;;;6.80;81.70;;;;;;4804079;29;20055;-70
2022/03/09 00:44:49;;;;;;;50.47;24.90;;;6.80;82.00;;;;;;4805104;29;20498;-70
2022/03/09 00:47:17;;;;;;;48.55;25.65;;;6.70;82.20;;;;;;4803349;29;20055;-70
2022/03/09 00:49:44;;;;;;;48.95;26.55;;;6.80;82.40;;;;;;4802492;29;20051;-69
2022/03/09 00:52:12;;;;;;;46.38;25.67;;;6.80;82.50;;;;;;4818561;29;20075;-70
2022/03/09 00:54:40;;;;;;;46.60;24.85;;;6.80;82.70;;;;;;4803197;29;20071;-69
2022/03/09 00:57:08;;;;;;;54.63;25.42;;;6.80;82.70;;;;;;4804469;29;20066;-70
2022/03/09 00:59:35;;;;;;;50.55;25.85;;;6.80;82.70;;;;;;4803409;29;20069;-69
2022/03/09 01:02:04;;;;;;;51.35;25.75;;;6.70;82.90;;;;;;4803366;29;20108;-70
2022/03/09 01:04:34;;;;;;;53.47;26.55;;;6.70;83.10;;;;;;4807892;29;20523;-70
2022/03/09 01:07:03;;;;;;;45.83;25.50;;;6.60;83.20;;;;;;4799985;29;20435;-70
2022/03/09 01:09:32;;;;;;;46.28;22.63;;;6.60;83.60;;;;;;4803715;29;20062;-70
2022/03/09 01:12:00;;;;;;;47.63;24.30;;;6.50;84.20;;;;;;4803142;29;20062;-70
2022/03/09 01:14:27;;;;;;;45.33;23.83;;;6.60;84.20;;;;;;4798143;29;20050;-70
2022/03/09 01:16:55;;;;;;;45.28;24.17;;;6.50;84.10;;;;;;4804602;29;20069;-69
2022/03/09 01:19:23;;;;;;;41.92;24.00;;;6.50;84.40;;;;;;4804256;29;20042;-70
2022/03/09 01:21:50;;;;;;;47.22;22.95;;;6.50;84.50;;;;;;4804636;29;20062;-70
2022/03/09 01:24:18;;;;;;;57.97;25.50;;;6.40;84.50;;;;;;4804271;29;20051;-70
2022/03/09 01:27:06;;;;;;;50.78;23.73;;;6.40;84.70;;;;;;4804674;29;20051;-70
2022/03/09 01:29:33;;;;;;;44.08;22.95;;;6.30;84.90;;;;;;4801742;29;20059;-70
2022/03/09 01:32:01;;;;;;;50.00;24.65;;;6.40;85.00;;;;;;4798245;29;20070;-70
2022/03/09 01:34:29;;;;;;;47.65;24.90;;;6.40;85.20;;;;;;4798509;29;20047;-70
2022/03/09 01:36:56;;;;;;;44.63;24.50;;;6.50;85.30;;;;;;4804481;29;20405;-70
2022/03/09 01:39:24;;;;;;;46.42;23.98;;;6.60;85.20;;;;;;4804381;29;20043;-70
2022/03/09 01:41:52;;;;;;;44.40;23.35;;;6.70;85.00;;;;;;4803775;29;20520;-70
2022/03/09 01:44:23;;;;;;;44.05;23.45;;;6.80;85.00;;;;;;4804621;29;20055;-69
2022/03/09 01:46:54;;;;;;;43.70;24.25;;;7.00;84.90;;;;;;4802388;29;20454;-69
2022/03/09 01:49:23;;;;;;;47.88;24.30;;;7.10;85.00;;;;;;4803018;29;20046;-70
2022/03/09 01:51:58;;;;;;;44.85;23.27;;;7.20;84.90;;;;;;4817732;29;20057;-69
2022/03/09 01:54:27;;;;;;;45.92;21.45;;;7.30;84.70;;;;;;4803753;29;20069;-69
2022/03/09 01:56:57;;;;;;;39.15;21.00;;;7.40;84.80;;;;;;4803501;29;20525;-70
2022/03/09 01:59:26;;;;;;;44.63;22.45;;;7.40;84.70;;;;;;4785336;30;20067;-69
2022/03/09 02:01:57;;;;;;;41.88;20.55;;;7.50;84.70;;;;;;4811324;29;20047;-70
2022/03/09 02:04:25;;;;;;;43.90;18.25;;;7.60;84.60;;;;;;4802793;29;20058;-70
2022/03/09 02:06:53;;;;;;;40.55;19.40;;;7.60;84.60;;;;;;4805762;29;20470;-70
2022/03/09 02:12:08;;;;;;;33.88;16.15;;;7.70;84.70;;;;;;4806826;29;20426;-69
2022/03/09 02:14:43;;;;;;;38.88;15.90;;;7.70;84.60;;;;;;4807003;29;20505;-70
2022/03/09 02:17:16;;;;;;;42.90;17.17;;;7.70;84.50;;;;;;4807247;29;20055;-69
2022/03/09 02:19:48;;;;;;;38.50;17.20;;;7.70;84.50;;;;;;4803101;29;20050;-70
2022/03/09 02:22:41;;;;;;;34.97;15.60;;;7.70;84.50;;;;;;4807028;29;20134;-70
2022/03/09 02:25:14;;;;;;;36.55;16.48;;;7.70;84.50;;;;;;4806524;29;20680;-69
2022/03/09 02:27:43;;;;;;;40.40;16.42;;;7.80;84.50;;;;;;4807027;29;20062;-70
2022/03/09 02:30:14;;;;;;;38.45;14.90;;;7.80;84.50;;;;;;4807172;29;20054;-69
2022/03/09 02:32:44;;;;;;;27.75;13.60;;;7.80;84.50;;;;;;4807261;29;20054;-70
2022/03/09 02:35:13;;;;;;;31.95;13.32;;;7.80;84.60;;;;;;4807138;29;20506;-69
2022/03/09 02:37:41;;;;;;;33.92;13.85;;;7.80;84.60;;;;;;4805508;29;20063;-69
2022/03/09 02:40:10;;;;;;;37.08;11.85;;;7.80;84.60;;;;;;4806655;29;20050;-70
2022/03/09 02:42:39;;;;;;;33.05;11.55;;;7.80;84.70;;;;;;4806639;29;20501;-70
2022/03/09 02:45:11;;;;;;;35.55;11.57;;;7.80;84.60;;;;;;4806665;29;20054;-69
2022/03/09 02:47:41;;;;;;;29.70;11.90;;;7.80;84.60;;;;;;4806540;29;20070;-70
2022/03/09 02:50:12;;;;;;;38.83;11.50;;;7.80;84.80;;;;;;4806368;29;20058;-70
2022/03/09 02:52:40;;;;;;;39.65;12.32;;;7.80;84.80;;;;;;4806333;29;20056;-69
2022/03/09 02:55:09;;;;;;;33.03;12.68;;;7.80;84.80;;;;;;4807584;29;20055;-69
2022/03/09 02:57:38;;;;;;;36.33;12.15;;;7.80;84.80;;;;;;4807280;29;20047;-69
2022/03/09 03:00:08;;;;;;;27.52;12.38;;;7.80;84.90;;;;;;4806120;29;20077;-69
2022/03/09 03:02:36;;;;;;;23.58;9.85;;;7.80;85.00;;;;;;4804739;29;20407;-69
2022/03/09 03:05:06;;;;;;;33.20;11.65;;;7.80;84.90;;;;;;4820267;29;20406;-70
2022/03/09 03:07:34;;;;;;;34.85;11.05;;;7.80;85.00;;;;;;4806454;29;20047;-69
2022/03/09 03:10:06;;;;;;;29.23;10.52;;;7.90;84.90;;;;;;4805024;29;20053;-69
2022/03/09 03:12:33;;;;;;;32.58;10.95;;;7.90;85.00;;;;;;4804412;29;20528;-69
2022/03/09 03:15:04;;;;;;;27.77;9.35;;;7.90;85.00;;;;;;4806253;29;20063;-70
2022/03/09 03:17:36;;;;;;;29.20;9.48;;;7.90;85.00;;;;;;4803811;29;20066;-70
2022/03/09 03:20:04;;;;;;;28.95;8.02;;;7.90;84.90;;;;;;4805817;29;20047;-71
2022/03/09 03:22:32;;;;;;;24.63;7.68;;;8.00;84.90;;;;;;4805622;29;20075;-69
2022/03/09 03:25:00;;;;;;;21.90;6.65;;;7.90;84.70;;;;;;4805618;29;20047;-69
2022/03/09 03:27:27;;;;;;;27.35;7.88;;;8.00;84.50;;;;;;4804605;29;20054;-70
2022/03/09 03:29:55;;;;;;;32.47;7.78;;;8.00;84.40;;;;;;4804324;29;20054;-71
2022/03/09 03:32:23;;;;;;;25.38;7.78;;;8.00;84.30;;;;;;4804699;29;20157;-70
2022/03/09 03:34:51;;;;;;;21.00;7.88;;;8.00;84.30;;;;;;4806325;29;20418;-69
2022/03/09 03:37:19;;;;;;;36.42;8.90;;;8.00;84.30;;;;;;4805499;29;20070;-69
2022/03/09 03:39:47;;;;;;;29.83;8.88;;;8.00;84.20;;;;;;4806273;29;20451;-69
2022/03/09 03:42:14;;;;;;;33.85;7.97;;;8.00;84.20;;;;;;4805923;29;20051;-69
2022/03/09 03:44:42;;;;;;;33.70;8.63;;;8.00;84.20;;;;;;4804615;29;20524;-69
2022/03/09 03:47:10;;;;;;;20.05;6.68;;;8.00;84.10;;;;;;4804501;29;20413;-68
2022/03/09 03:49:37;;;;;;;27.77;7.32;;;8.00;84.10;;;;;;4805420;29;20390;-70
2022/03/09 03:52:05;;;;;;;27.50;7.47;;;8.00;84.10;;;;;;4804377;29;20413;-69
2022/03/09 03:54:33;;;;;;;25.15;7.00;;;8.00;84.10;;;;;;4803856;29;20062;-70
2022/03/09 03:57:01;;;;;;;22.23;6.38;;;8.00;84.00;;;;;;4818654;29;20078;-70
2022/03/09 03:59:28;;;;;;;25.35;6.55;;;7.90;84.10;;;;;;4805854;29;20506;-70
2022/03/09 04:01:59;;;;;;;26.67;6.50;;;7.80;84.10;;;;;;4805486;29;20490;-69
2022/03/09 04:04:27;;;;;;;26.42;5.90;;;7.80;84.10;;;;;;4805277;29;20540;-69
2022/03/09 04:06:56;;;;;;;25.85;5.70;;;7.80;84.10;;;;;;4803627;29;20043;-69
2022/03/09 04:09:24;;;;;;;18.50;5.13;;;7.80;84.20;;;;;;4804986;29;20390;-69
2022/03/09 04:11:52;;;;;;;22.42;6.18;;;7.80;84.10;;;;;;4803996;29;20062;-69
2022/03/09 04:14:22;;;;;;;25.38;5.63;;;7.80;84.10;;;;;;4805171;29;20078;-69
2022/03/09 04:16:50;;;;;;;26.85;5.50;;;7.80;84.20;;;;;;4804939;29;20047;-70
2022/03/09 04:19:17;;;;;;;29.05;6.10;;;7.80;84.10;;;;;;4804220;29;20066;-69
2022/03/09 04:21:45;;;;;;;22.15;6.13;;;7.70;84.10;;;;;;4804707;29;20042;-70
2022/03/09 04:24:13;;;;;;;21.33;5.45;;;7.70;84.20;;;;;;4805143;29;20066;-70
2022/03/09 04:26:40;;;;;;;31.52;6.03;;;7.70;84.20;;;;;;4804064;29;20054;-70
2022/03/09 04:29:08;;;;;;;26.73;6.15;;;7.70;84.20;;;;;;4804682;29;20054;-70
2022/03/09 04:31:37;;;;;;;23.83;6.40;;;7.70;84.20;;;;;;4804979;29;20509;-70
2022/03/09 04:34:08;;;;;;;20.00;5.47;;;7.60;84.30;;;;;;4804726;29;20081;-70
2022/03/09 04:36:36;;;;;;;17.40;4.93;;;7.50;84.30;;;;;;4800822;29;20435;-70
2022/03/09 04:39:06;;;;;;;24.63;5.45;;;7.50;84.40;;;;;;4802754;29;20526;-69
2022/03/09 04:41:33;;;;;;;23.40;5.72;;;7.50;84.40;;;;;;4803661;29;20047;-70
2022/03/09 04:44:01;;;;;;;26.33;5.45;;;7.50;84.70;;;;;;4819108;29;20059;-70
2022/03/09 04:46:30;;;;;;;22.15;4.95;;;7.40;84.70;;;;;;4804838;29;20416;-70
2022/03/09 04:48:59;;;;;;;25.00;6.00;;;7.40;84.80;;;;;;4803946;29;20054;-70
2022/03/09 04:51:26;;;;;;;17.98;4.63;;;7.40;84.80;;;;;;4804626;29;20043;-70
2022/03/09 04:53:54;;;;;;;23.38;4.70;;;7.30;84.90;;;;;;4803992;29;20073;-70
2022/03/09 04:56:22;;;;;;;28.05;5.40;;;7.30;84.90;;;;;;4787806;29;20055;-70
2022/03/09 04:58:49;;;;;;;18.58;5.93;;;7.40;84.90;;;;;;4804399;29;20054;-70
2022/03/09 05:01:17;;;;;;;22.42;5.63;;;7.30;84.90;;;;;;4803080;29;20050;-70
2022/03/09 05:03:45;;;;;;;23.30;6.00;;;7.40;85.00;;;;;;4803738;29;20047;-70
2022/03/09 05:06:14;;;;;;;23.35;7.07;;;7.40;84.90;;;;;;4804575;29;20502;-70
2022/03/09 05:08:46;;;;;;;27.25;8.05;;;7.30;85.00;;;;;;4804473;29;20067;-70
2022/03/09 05:11:14;;;;;;;27.67;8.18;;;7.30;85.00;;;;;;4804839;29;20043;-70
2022/03/09 05:13:42;;;;;;;26.33;9.18;;;7.30;85.00;;;;;;4804739;29;20055;-70
2022/03/09 05:16:11;;;;;;;31.73;10.23;;;7.30;85.10;;;;;;4804455;29;20055;-70
2022/03/09 05:18:40;;;;;;;42.28;10.68;;;7.30;85.10;;;;;;4804165;29;20050;-70
2022/03/09 05:21:10;;;;;;;33.45;9.98;;;7.30;85.10;;;;;;4804311;29;20054;-69
2022/03/09 05:23:37;;;;;;;32.95;10.30;;;7.30;85.30;;;;;;4818065;29;20055;-69
2022/03/09 05:26:05;;;;;;;25.17;9.13;;;7.30;85.40;;;;;;4803703;29;20051;-69
2022/03/09 05:28:34;;;;;;;32.78;8.73;;;7.30;85.40;;;;;;4804391;29;20489;-69
2022/03/09 05:31:02;;;;;;;28.48;8.38;;;7.30;85.40;;;;;;4804266;29;20058;-69
2022/03/09 05:33:29;;;;;;;24.63;7.80;;;7.30;85.40;;;;;;4803327;29;20076;-69
2022/03/09 05:35:57;;;;;;;35.63;7.72;;;7.30;85.50;;;;;;4804296;29;20054;-69
2022/03/09 05:38:25;;;;;;;27.90;8.00;;;7.30;85.50;;;;;;4804316;29;20043;-69
2022/03/09 05:40:52;;;;;;;28.10;6.25;;;7.30;85.50;;;;;;4800454;29;20061;-69
2022/03/09 05:43:20;;;;;;;29.73;8.65;;;7.30;85.70;;;;;;4800063;29;20390;-70
2022/03/09 05:45:48;;;;;;;20.70;6.38;;;7.30;85.70;;;;;;4808169;29;20054;-70
2022/03/09 05:48:16;;;;;;;26.15;6.88;;;7.30;85.60;;;;;;4807273;29;20058;-69
2022/03/09 05:50:43;;;;;;;31.70;7.22;;;7.30;85.70;;;;;;4807788;29;20046;-70
2022/03/09 05:53:11;;;;;;;28.45;7.05;;;7.30;85.60;;;;;;4807855;29;20051;-69
2022/03/09 05:55:39;;;;;;;34.22;7.85;;;7.30;85.60;;;;;;4807235;29;20058;-69
2022/03/09 05:58:06;;;;;;;23.33;8.02;;;7.30;85.70;;;;;;4807392;29;20054;-69
2022/03/09 06:00:34;;;;;;;23.33;6.32;;;7.30;85.80;;;;;;4807355;29;20505;-69
2022/03/09 06:03:02;;;;;;;24.75;8.15;;;7.30;85.80;;;;;;4794493;29;20530;-69
2022/03/09 06:05:30;;;;;;;27.63;9.13;;;7.30;85.90;;;;;;4808099;29;20050;-71
2022/03/09 06:07:58;;;;;;;26.83;8.20;;;7.20;85.90;;;;;;4790203;29;20402;-71
2022/03/09 06:10:26;;;;;;;28.73;8.13;;;7.20;85.80;;;;;;4806862;29;20062;-70
2022/03/09 06:12:53;;;;;;;29.77;8.70;;;7.20;85.90;;;;;;4806821;29;20050;-71
2022/03/09 06:15:21;;;;;;;28.42;8.90;;;7.20;85.90;;;;;;4820714;29;20544;-70
2022/03/09 06:17:51;;;;;;;25.55;8.32;;;7.20;86.00;;;;;;4805637;29;20047;-70
2022/03/09 06:20:21;;;;;;;35.78;8.75;;;7.10;86.00;;;;;;4807220;29;20047;-70
2022/03/09 06:22:48;;;;;;;24.27;7.45;;;7.20;86.00;;;;;;4806422;29;20087;-70
2022/03/09 06:25:17;;;;;;;24.83;7.88;;;7.10;86.00;;;;;;4806700;29;20050;-71
2022/03/09 06:27:48;;;;;;;22.23;6.97;;;7.10;86.00;;;;;;4806332;29;20050;-71
2022/03/09 06:30:20;;;;;;;24.58;6.70;;;7.10;86.00;;;;;;4805746;29;20110;-71
2022/03/09 06:32:48;;;;;;;27.05;6.88;;;7.20;86.10;;;;;;4801076;29;20509;-71
2022/03/09 06:35:16;;;;;;;17.92;5.95;;;7.20;86.10;;;;;;4805974;29;20058;-71
2022/03/09 06:37:43;;;;;;;34.50;6.95;;;7.20;86.10;;;;;;4805134;29;20054;-71
2022/03/09 06:40:12;;;;;;;22.10;6.10;;;7.20;86.00;;;;;;4806197;29;20057;-71
2022/03/09 06:42:40;;;;;;;22.55;6.68;;;7.20;86.00;;;;;;4820191;29;20061;-71
2022/03/09 06:45:08;;;;;;;25.85;6.35;;;7.30;85.90;;;;;;4806367;29;20046;-71
2022/03/09 06:47:38;;;;;;;25.42;6.18;;;7.30;85.90;;;;;;4799770;29;20055;-71
2022/03/09 06:50:08;;;;;;;23.80;6.18;;;7.30;85.80;;;;;;4815774;29;20047;-71
2022/03/09 06:52:37;;;;;;;19.13;6.15;;;7.40;85.60;;;;;;4803660;29;20059;-71
2022/03/09 06:55:07;;;;;;;27.33;6.00;;;7.40;85.50;;;;;;4806199;29;20058;-71
2022/03/09 06:57:36;;;;;;;28.95;6.13;;;7.30;85.40;;;;;;4804931;29;20386;-71
2022/03/09 07:00:16;;;;;;;20.38;5.68;;;7.40;85.30;;;;;;4804802;29;20046;-71
2022/03/09 07:02:45;;;;;;;20.40;5.68;;;7.40;85.30;;;;;;4804055;29;20069;-71
2022/03/09 07:05:14;;;;;;;19.92;4.80;;;7.30;85.30;;;;;;4803783;29;20043;-71
2022/03/09 07:07:41;;;;;;;20.98;5.38;;;7.30;85.20;;;;;;4801659;29;20059;-71
2022/03/09 07:10:13;;;;;;;17.70;5.07;;;7.40;85.10;;;;;;4801448;29;20236;-71
2022/03/09 07:12:44;;;;;;;21.63;5.20;;;7.40;84.90;;;;;;4802868;29;20047;-70
2022/03/09 07:15:13;;;;;;;18.45;4.90;;;7.50;84.90;;;;;;4801855;29;20428;-71
2022/03/09 07:17:42;;;;;;;12.77;4.90;;;7.50;84.80;;;;;;4804379;29;20051;-71
2022/03/09 07:20:11;;;;;;;23.60;5.45;;;7.50;84.70;;;;;;4803667;29;20073;-72
2022/03/09 07:22:43;;;;;;;23.20;5.05;;;7.50;84.60;;;;;;4804625;29;20047;-71
2022/03/09 07:25:12;;;;;;;23.05;5.55;;;7.50;84.40;;;;;;4804922;29;20243;-71
2022/03/09 07:27:41;;;;;;;21.95;4.15;;;7.60;84.40;;;;;;4801973;29;20039;-71
2022/03/09 07:30:09;;;;;;;16.88;4.40;;;7.60;84.20;;;;;;4802230;29;20533;-71
2022/03/09 07:32:37;;;;;;;19.30;4.40;;;7.60;84.10;;;;;;4805695;29;20051;-71
2022/03/09 07:35:22;;;;;;;17.88;3.97;;;7.60;83.90;;;;;;4802794;29;20417;-71
2022/03/09 07:37:51;;;;;;;23.85;4.30;;;7.70;83.70;;;;;;4804923;29;20043;-71
2022/03/09 07:40:20;;;;;;;22.08;4.00;;;7.80;83.50;;;;;;4801723;29;20058;-71
2022/03/09 07:42:48;;;;;;;12.50;3.20;;;7.80;83.40;;;;;;4804360;29;20070;-71
2022/03/09 07:45:17;;;;;;;15.10;4.07;;;7.80;83.30;;;;;;4803739;29;20062;-71
2022/03/09 07:47:45;;;;;;;21.15;4.32;;;7.80;83.00;;;;;;4804970;29;20042;-71
2022/03/09 07:50:13;;;;;;;21.15;4.18;;;7.90;82.90;;;;;;4802324;29;20065;-71
2022/03/09 07:52:41;;;;;;;20.48;4.70;;;7.90;82.90;;;;;;4802188;29;20070;-72
2022/03/09 07:55:09;;;;;;;13.68;3.15;;;7.90;82.70;;;;;;4803762;29;20509;-70
2022/03/09 07:57:37;;;;;;;15.55;3.22;;;8.00;82.60;;;;;;4803552;29;20057;-70
2022/03/09 08:00:06;;;;;;;18.17;3.22;;;8.00;82.40;;;;;;4800879;29;20047;-71
2022/03/09 08:02:40;;;;;;;21.00;3.08;;;8.00;82.10;;;;;;4796003;29;20047;-71
2022/03/09 08:05:12;;;;;;;16.73;3.63;;;8.00;81.70;;;;;;4803717;29;20055;-71
2022/03/09 08:07:39;;;;;;;12.40;2.83;;;8.20;81.60;;;;;;4803875;29;20038;-72
2022/03/09 08:10:09;;;;;;;17.63;2.97;;;8.20;81.50;;;;;;4799748;29;20529;-70
2022/03/09 08:12:37;;;;;;;13.57;2.65;;;8.20;81.40;;;;;;4803265;29;20401;-71
2022/03/09 08:15:06;;;;;;;18.70;2.67;;;8.30;81.20;;;;;;4796274;29;20062;-71
2022/03/09 08:17:34;;;;;;;13.98;2.90;;;8.30;81.10;;;;;;4791082;29;20054;-71
2022/03/09 08:20:02;;;;;;;13.32;2.70;;;8.30;80.70;;;;;;4804768;29;20046;-71
2022/03/09 08:22:30;;;;;;;14.93;2.78;;;8.30;80.50;;;;;;4804879;29;20055;-71
2022/03/09 08:24:57;;;;;;;19.17;3.10;;;8.30;80.20;;;;;;4805058;29;20058;-71
2022/03/09 08:27:25;;;;;;;11.95;2.47;;;8.40;80.00;;;;;;4805039;29;20063;-70
2022/03/09 08:29:53;;;;;;;12.10;2.28;;;8.40;79.60;;;;;;4803253;29;20092;-73
2022/03/09 08:32:22;;;;;;;18.50;3.20;;;8.50;79.50;;;;;;4802514;29;20059;-71
2022/03/09 08:34:50;;;;;;;13.23;2.58;;;8.60;79.30;;;;;;4804619;29;20050;-72
2022/03/09 08:37:18;;;;;;;12.60;2.53;;;8.60;79.00;;;;;;4802763;29;20043;-72
2022/03/09 08:39:48;;;;;;;19.17;2.30;;;8.60;79.10;;;;;;4802871;29;20067;-72
2022/03/09 08:42:18;;;;;;;11.98;2.40;;;8.60;78.80;;;;;;4803332;29;20054;-71
2022/03/09 08:44:46;;;;;;;13.18;2.85;;;8.60;78.60;;;;;;4804406;29;20047;-71
2022/03/09 08:47:14;;;;;;;17.83;2.88;;;8.60;78.60;;;;;;4804833;29;20066;-71
2022/03/09 08:49:41;;;;;;;14.55;2.65;;;8.50;78.20;;;;;;4804709;29;20062;-70
2022/03/09 08:52:11;;;;;;;14.05;2.08;;;8.40;78.10;;;;;;4804622;29;20517;-71
2022/03/09 08:54:40;;;;;;;18.00;3.13;;;8.50;78.20;;;;;;4802934;29;20050;-70
2022/03/09 08:57:09;;;;;;;20.33;3.10;;;8.40;77.80;;;;;;4794360;29;20382;-71
2022/03/09 08:59:37;;;;;;;18.30;3.22;;;8.50;78.10;;;;;;4804438;29;20166;-71
2022/03/09 09:02:04;;;;;;;17.13;2.20;;;8.50;78.20;;;;;;4804100;29;20062;-71
2022/03/09 09:04:32;;;;;;;12.70;2.17;;;8.60;78.20;;;;;;4804308;29;20077;-71
2022/03/09 09:07:00;;;;;;;15.57;2.22;;;8.70;78.10;;;;;;4804554;29;20509;-71
2022/03/09 09:09:28;;;;;;;16.05;2.42;;;8.80;77.90;;;;;;4804049;29;20064;-71
2022/03/09 09:11:55;;;;;;;13.10;2.20;;;8.90;77.70;;;;;;4803795;29;20063;-71
2022/03/09 09:14:44;;;;;;;15.48;2.15;;;9.10;77.60;;;;;;4804642;29;20043;-71
2022/03/09 09:17:11;;;;;;;20.80;3.20;;;9.30;76.60;;;;;;4806951;29;20062;-70
2022/03/09 09:19:59;;;;;;;19.15;3.42;;;9.50;76.40;;;;;;4807050;29;20043;-71
2022/03/09 09:22:27;;;;;;;22.52;3.20;;;9.60;75.90;;;;;;4806246;29;20062;-71
2022/03/09 09:24:55;;;;;;;22.35;3.50;;;9.80;75.30;;;;;;4807696;29;20050;-72
2022/03/09 09:27:23;;;;;;;21.85;2.92;;;9.80;74.80;;;;;;4808075;29;20568;-72
2022/03/09 09:30:11;;;;;;;14.63;2.20;;;9.80;74.90;;;;;;4790636;29;20063;-71
2022/03/09 09:32:38;;;;;;;15.57;2.22;;;9.90;74.80;;;;;;4807098;29;20050;-72
2022/03/09 09:35:06;;;;;;;18.45;2.80;;;10.00;74.30;;;;;;4807736;29;20062;-72
2022/03/09 09:37:34;;;;;;;14.65;2.63;;;9.90;73.50;;;;;;4807648;29;20409;-72
2022/03/09 09:40:02;;;;;;;23.92;3.63;;;9.90;73.30;;;;;;4808156;29;20170;-72
2022/03/09 09:42:31;;;;;;;14.10;2.33;;;9.90;73.60;;;;;;4807836;29;20050;-72
2022/03/09 09:45:19;;;;;;;13.02;2.10;;;9.90;73.50;;;;;;4807927;29;20530;-72
2022/03/09 09:47:51;;;;;;;16.67;3.00;;;9.90;73.20;;;;;;4807354;29;20078;-72
2022/03/09 09:50:19;;;;;;;18.17;3.05;;;9.90;73.00;;;;;;4807542;29;20051;-72
2022/03/09 09:52:47;;;;;;;23.00;3.92;;;9.90;73.30;;;;;;4807144;29;20498;-72
2022/03/09 09:55:15;;;;;;;17.23;3.25;;;10.00;73.20;;;;;;4820935;29;20066;-71
2022/03/09 09:57:45;;;;;;;14.90;2.40;;;10.00;73.20;;;;;;4820962;29;20393;-72
2022/03/09 10:00:14;;;;;;;18.90;2.78;;;10.20;72.60;;;;;;4807056;29;20481;-72
2022/03/09 10:02:42;;;;;;;15.98;2.55;;;10.20;72.30;;;;;;4807489;29;20070;-72
2022/03/09 10:05:17;;;;;;;15.57;2.17;;;10.30;72.30;;;;;;4807507;29;20047;-72
2022/03/09 10:08:03;;;;;;;14.02;2.75;;;10.30;72.40;;;;;;4821115;29;20394;-72
2022/03/09 10:10:41;;;;;;;19.25;2.47;;;10.40;70.80;;;;;;4806202;29;20169;-72
2022/03/09 10:13:30;;;;;;;15.52;2.55;;;10.40;70.10;;;;;;4805885;29;20513;-72
2022/03/09 10:16:20;;;;;;;17.75;2.88;;;10.50;70.50;;;;;;4806244;29;20074;-72
2022/03/09 10:18:56;;;;;;;18.13;2.70;;;10.60;70.50;;;;;;4794053;29;20142;-71
2022/03/09 10:21:28;;;;;;;16.45;1.80;;;10.70;70.00;;;;;;4807419;29;20398;-71
2022/03/09 10:24:08;;;;;;;19.38;2.50;;;10.80;69.00;;;;;;4806538;29;20050;-71
2022/03/09 10:26:38;;;;;;;15.55;2.30;;;10.80;68.80;;;;;;4807123;29;20387;-71
2022/03/09 10:29:08;;;;;;;18.02;2.33;;;10.80;68.40;;;;;;4806411;29;20051;-70
2022/03/09 10:31:41;;;;;;;15.82;2.00;;;10.80;68.00;;;;;;4807217;29;20066;-70
2022/03/09 10:34:16;;;;;;;19.45;1.80;;;11.00;67.60;;;;;;4806529;29;20062;-70
2022/03/09 10:36:58;;;;;;;14.50;1.98;;;11.10;66.80;;;;;;4806715;29;20051;-70
2022/03/09 10:39:29;;;;;;;19.42;2.83;;;11.30;65.90;;;;;;4806799;29;20066;-72
2022/03/09 10:42:01;;;;;;;17.90;2.20;;;11.40;65.70;;;;;;4805434;29;20050;-72
2022/03/09 10:44:42;;;;;;;9.35;1.67;;;11.50;65.50;;;;;;4807097;29;20502;-72
2022/03/09 10:47:11;;;;;;;12.38;2.08;;;11.60;64.90;;;;;;4817860;29;20056;-72
2022/03/09 10:49:39;;;;;;;16.88;1.80;;;11.50;65.40;;;;;;4788622;29;20062;-72
2022/03/09 10:52:08;;;;;;;18.27;2.65;;;11.50;64.20;;;;;;4788808;30;20055;-72
2022/03/09 10:54:36;;;;;;;13.73;1.90;;;11.60;64.10;;;;;;4789020;30;20486;-72
2022/03/09 10:57:12;;;;;;;13.38;2.05;;;11.60;64.40;;;;;;4799102;29;20374;-72
2022/03/09 10:59:52;;;;;;;10.02;2.20;;;11.50;63.90;;;;;;4806444;29;20058;-72
2022/03/09 11:02:22;;;;;;;14.15;1.92;;;11.50;64.10;;;;;;4806457;29;20058;-72
2022/03/09 11:05:13;;;;;;;9.43;1.70;;;11.60;63.60;;;;;;4806695;29;20415;-71
2022/03/09 11:07:41;;;;;;;21.65;2.33;;;11.50;63.20;;;;;;4806713;29;20062;-72
2022/03/09 11:10:11;;;;;;;19.58;2.60;;;11.50;63.20;;;;;;4817225;29;20062;-72
2022/03/09 11:12:39;;;;;;;12.48;1.60;;;11.40;64.10;;;;;;4788724;29;20533;-72
2022/03/09 11:15:08;;;;;;;15.32;2.25;;;11.50;64.70;;;;;;4798404;29;20070;-72
2022/03/09 11:17:36;;;;;;;14.20;2.28;;;11.60;64.70;;;;;;4819542;29;20505;-72
2022/03/09 11:20:04;;;;;;;14.23;2.10;;;11.60;64.70;;;;;;4820277;29;20055;-72
2022/03/09 11:22:32;;;;;;;10.80;2.05;;;11.70;64.10;;;;;;4804998;29;20053;-71
2022/03/09 11:24:59;;;;;;;15.25;1.90;;;11.70;64.00;;;;;;4805656;29;20058;-71
2022/03/09 11:27:27;;;;;;;7.43;1.40;;;11.70;63.90;;;;;;4804014;29;20050;-72
2022/03/09 11:29:57;;;;;;;12.48;1.90;;;11.70;63.50;;;;;;4788038;30;20437;-72
2022/03/09 11:32:35;;;;;;;14.02;2.05;;;11.70;62.90;;;;;;4803570;29;20051;-72
2022/03/09 11:35:06;;;;;;;9.50;1.60;;;11.50;62.70;;;;;;4804179;29;20051;-71
2022/03/09 11:37:35;;;;;;;9.48;1.40;;;11.50;63.30;;;;;;4819864;29;20051;-72
2022/03/09 11:40:09;;;;;;;11.30;1.98;;;11.50;63.40;;;;;;4815292;29;20546;-72
2022/03/09 11:42:41;;;;;;;14.57;1.75;;;11.60;62.80;;;;;;4788463;30;20047;-71
2022/03/09 11:45:14;;;;;;;11.43;1.85;;;11.60;63.00;;;;;;4787945;29;20416;-71
2022/03/09 11:48:01;;;;;;;14.45;1.92;;;11.70;63.00;;;;;;4788165;30;20066;-71
2022/03/09 11:50:57;;;;;;;10.57;1.77;;;11.70;63.10;;;;;;4788117;30;20047;-71
2022/03/09 11:53:44;;;;;;;19.20;1.83;;;11.80;63.00;;;;;;4804241;29;20063;-71
2022/03/09 11:56:27;;;;;;;13.25;1.70;;;11.80;63.30;;;;;;4805408;29;20062;-71
2022/03/09 11:59:09;;;;;;;8.50;1.73;;;11.80;63.10;;;;;;4802632;29;20497;-72
2022/03/09 12:01:58;;;;;;;8.88;1.55;;;11.80;62.20;;;;;;4819043;29;20051;-71
2022/03/09 12:04:50;;;;;;;8.32;1.88;;;11.90;62.80;;;;;;4805867;29;20054;-71
2022/03/09 12:07:27;;;;;;;18.92;1.70;;;12.20;61.70;;;;;;4806236;29;20406;-71
2022/03/09 12:10:06;;;;;;;16.70;2.42;;;12.20;61.30;;;;;;4805522;29;20524;-71
2022/03/09 12:12:36;;;;;;;16.83;2.05;;;12.20;61.60;;;;;;4787715;30;20062;-70
2022/03/09 12:15:08;;;;;;;15.75;1.90;;;12.20;61.30;;;;;;4792911;29;20059;-71
2022/03/09 12:17:38;;;;;;;10.07;1.45;;;12.20;61.80;;;;;;4805836;29;20055;-71
2022/03/09 12:20:27;;;;;;;12.63;2.40;;;12.30;61.20;;;;;;4816012;29;20059;-70
2022/03/09 12:22:55;;;;;;;10.82;1.70;;;12.30;61.40;;;;;;4788363;30;20066;-71
2022/03/09 12:25:44;;;;;;;14.55;1.88;;;12.30;61.30;;;;;;4800025;29;20051;-71
2022/03/09 12:28:28;;;;;;;12.48;2.10;;;12.30;61.20;;;;;;4805530;29;20058;-71
2022/03/09 12:31:05;;;;;;;11.35;1.85;;;12.30;61.00;;;;;;4805417;29;20516;-71
2022/03/09 12:33:37;;;;;;;13.57;1.60;;;12.10;60.60;;;;;;4805420;29;20051;-71
2022/03/09 12:36:12;;;;;;;12.15;1.95;;;12.00;61.10;;;;;;4804977;29;20062;-71
2022/03/09 12:39:01;;;;;;;7.18;1.25;;;11.90;61.00;;;;;;4819336;29;20061;-70
2022/03/09 12:41:33;;;;;;;12.13;2.03;;;11.80;61.20;;;;;;4805409;29;20047;-71
2022/03/09 12:44:02;;;;;;;11.57;1.88;;;11.70;62.00;;;;;;4805298;29;20062;-70
2022/03/09 12:46:31;;;;;;;14.10;1.70;;;11.80;61.80;;;;;;4805420;29;20051;-71
2022/03/09 12:49:07;;;;;;;10.10;1.60;;;11.80;61.90;;;;;;4803132;29;20505;-71
2022/03/09 12:51:37;;;;;;;10.65;1.65;;;11.80;62.00;;;;;;4804552;29;20509;-72
2022/03/09 12:54:39;;;;;;;12.90;1.98;;;11.90;61.60;;;;;;4805229;29;20055;-71
2022/03/09 12:57:07;;;;;;;12.93;1.63;;;12.00;61.90;;;;;;4818348;29;20061;-71
2022/03/09 12:59:36;;;;;;;23.33;2.35;;;12.10;60.60;;;;;;4804904;29;20043;-71
2022/03/09 13:02:05;;;;;;;11.82;1.38;;;12.00;60.50;;;;;;4805296;29;20514;-71